K. Taean — H8MW — position and weather

sailwx.info

Track history (hours):
 
Tides and Currents Weather Stations Pressure Air Temp Water Temp Dewpoint Dewpoint Depression Visibility Wind Speed Wind Dir Waves Ship Positions

K. Taean

Last reported at 2017-Oct-26 23:19 UTC. Time now 2017-Nov-24 20:39 UTC.
Position S 27°23' E 154°03'.
Warning: this ship's position is 28 days out of date.

Length 273 m; draft 14.9 m.

Type: Cargo ship. MMSI: 356374000.

Date/timePositionNaut miles runAvg speedWind from/ knotsBaromVisibWave heightAir tempDewpointWater temp
2017-Oct-26 23:19S 27°23' E 154°03'411.1
2017-Oct-26 23:00S 27°27' E 154°03'511.0
2017-Oct-26 22:30S 27°32' E 154°03'511.1
2017-Oct-26 22:01S 27°38' E 154°02'611.1
2017-Oct-26 21:31S 27°43' E 154°02'611.1
2017-Oct-26 21:01S 27°49' E 154°02'510.9
2017-Oct-26 20:31S 27°54' E 154°02'510.8
2017-Oct-26 20:01S 27°60' E 154°01'510.4
2017-Oct-26 19:31S 28°05' E 154°01'510.4
2017-Oct-26 19:00S 28°10' E 153°59'510.5
2017-Oct-26 18:30S 28°15' E 153°58'510.5
2017-Oct-26 18:00S 28°20' E 153°57'510.3
2017-Oct-26 17:31S 28°25' E 153°56'510.3
2017-Oct-26 17:00S 28°31' E 153°55'510.1
2017-Oct-26 16:30S 28°36' E 153°55'11 9.8
2017-Oct-26 15:24S 28°46' E 153°54'4 9.4
2017-Oct-26 14:57S 28°51' E 153°53'8 9.4
2017-Oct-26 14:09S 28°58' E 153°52'1 9.4
2017-Oct-26 14:00S 28°59' E 153°52'19011.2
2017-Oct-25 21:03S 32°02' E 152°52'011.3
2017-Oct-25 21:00S 32°02' E 152°52'711.6
2017-Oct-25 20:22S 32°09' E 152°49'711.9
2017-Oct-25 19:46S 32°16' E 152°46'511.8
2017-Oct-25 19:18S 32°21' E 152°43'311.7
2017-Oct-25 19:01S 32°24' E 152°42'612.5
2017-Oct-25 18:30S 32°30' E 152°39'612.9
2017-Oct-25 18:00S 32°35' E 152°34'713.2
2017-Oct-25 17:31S 32°40' E 152°29'713.1
2017-Oct-25 17:00S 32°45' E 152°23'713.5
2017-Oct-25 16:30S 32°47' E 152°16'612.9
2017-Oct-25 16:00S 32°50' E 152°09'612.4
2017-Oct-25 15:30S 32°53' E 152°02'612.5
2017-Oct-25 15:00S 32°55' E 151°55'4 8.9
2017-Oct-25 14:30S 32°57' E 151°51'3 5.8
2017-Oct-25 14:00S 32°55' E 151°48'1 2.8
2017-Oct-25 13:30S 32°54' E 151°46'1 2.9
2017-Oct-25 13:00S 32°53' E 151°45'0 0.4
2017-Oct-25 12:28S 32°53' E 151°45'0 0.0
2017-Oct-25 11:58S 32°53' E 151°45'0 0.0
2017-Oct-25 11:28S 32°53' E 151°45'0 0.0
2017-Oct-25 11:00S 32°53' E 151°45'0 0.0
2017-Oct-25 10:30S 32°53' E 151°45'0 0.0
2017-Oct-25 10:00S 32°53' E 151°45'0 0.0
2017-Oct-25 09:30S 32°53' E 151°45'0 0.0
2017-Oct-25 09:00S 32°53' E 151°45'0 0.0
2017-Oct-25 08:28S 32°53' E 151°45'0 0.0
2017-Oct-25 07:58S 32°53' E 151°45'0 0.0
2017-Oct-25 07:30S 32°53' E 151°45'0 0.0
2017-Oct-25 07:00S 32°53' E 151°45'0 0.0
2017-Oct-25 06:30S 32°53' E 151°45'0 0.0
2017-Oct-25 05:58S 32°53' E 151°45'0 0.0
2017-Oct-25 05:30S 32°53' E 151°45'0 0.0
2017-Oct-25 04:57S 32°53' E 151°45'0 0.0
2017-Oct-25 04:30S 32°53' E 151°45'0 0.0
2017-Oct-25 04:00S 32°53' E 151°45'0 0.0
2017-Oct-25 03:30S 32°53' E 151°45'0 0.0
2017-Oct-25 03:00S 32°53' E 151°45'0 0.0
2017-Oct-25 02:24S 32°53' E 151°45'0 0.0
2017-Oct-25 02:00S 32°53' E 151°45'0 0.0
2017-Oct-25 01:30S 32°53' E 151°45'0 0.0
2017-Oct-25 01:00S 32°53' E 151°45'0 0.0
2017-Oct-25 00:30S 32°53' E 151°45'0 0.0
2017-Oct-25 00:00S 32°53' E 151°45'0 0.0
2017-Oct-24 23:27S 32°53' E 151°45'0 0.0
2017-Oct-24 23:00S 32°53' E 151°45'0 0.0
2017-Oct-24 22:30S 32°53' E 151°45'0 0.0
2017-Oct-24 22:00S 32°53' E 151°45'0 0.0
2017-Oct-24 21:30S 32°53' E 151°45'0 0.0
2017-Oct-24 21:00S 32°53' E 151°45'0 0.0
2017-Oct-24 20:30S 32°53' E 151°45'0 0.0
2017-Oct-24 20:00S 32°53' E 151°45'0 0.0
2017-Oct-24 19:30S 32°53' E 151°45'0 0.0
2017-Oct-24 19:00S 32°53' E 151°45'0 0.0
2017-Oct-24 18:30S 32°53' E 151°45'0 0.0
2017-Oct-24 18:00S 32°53' E 151°45'0 0.0
2017-Oct-24 17:30S 32°53' E 151°45'0 0.0
2017-Oct-24 17:00S 32°53' E 151°45'0 0.0
2017-Oct-24 16:30S 32°53' E 151°45'0 0.0
2017-Oct-24 16:00S 32°53' E 151°45'0 0.0
2017-Oct-24 15:30S 32°53' E 151°45'0 0.0
2017-Oct-24 15:00S 32°53' E 151°45'0 0.0
2017-Oct-24 14:30S 32°53' E 151°45'0 0.0
2017-Oct-24 14:00S 32°53' E 151°45'0 0.0
2017-Oct-24 13:30S 32°53' E 151°45'0 0.0
2017-Oct-24 13:00S 32°53' E 151°45'0 0.0
2017-Oct-24 12:30S 32°53' E 151°45'0 0.0
2017-Oct-24 12:00S 32°53' E 151°45'0 0.0
2017-Oct-24 11:30S 32°53' E 151°45'0 0.0
2017-Oct-24 11:00S 32°53' E 151°45'0 0.0
2017-Oct-24 10:30S 32°53' E 151°45'0 0.0
2017-Oct-24 10:00S 32°53' E 151°45'0 0.0
2017-Oct-24 09:30S 32°53' E 151°45'0 0.0
2017-Oct-24 09:00S 32°53' E 151°45'0 0.0
2017-Oct-24 08:27S 32°53' E 151°45'0 0.0
2017-Oct-24 08:00S 32°53' E 151°45'0 0.0
2017-Oct-24 07:27S 32°53' E 151°45'0 0.0
2017-Oct-24 06:51S 32°53' E 151°45'0 0.0
2017-Oct-24 06:27S 32°53' E 151°45'0 0.0
2017-Oct-24 05:57S 32°53' E 151°45'0 0.0
2017-Oct-24 05:30S 32°53' E 151°45'0 0.0
2017-Oct-24 05:00S 32°53' E 151°45'0 0.0
2017-Oct-24 04:30S 32°53' E 151°45'0 0.0
2017-Oct-24 04:00S 32°53' E 151°45'0 0.0
2017-Oct-24 03:30S 32°53' E 151°45'0 0.0
2017-Oct-24 03:00S 32°53' E 151°45'1 1.8
2017-Oct-24 02:30S 32°53' E 151°46'2 3.1
2017-Oct-24 02:00S 32°55' E 151°47'3 6.4
2017-Oct-24 01:30S 32°55' E 151°50'510.5
2017-Oct-24 01:00S 32°59' E 151°54'611.9
2017-Oct-24 00:30S 33°02' E 152°01'5 9.4
2017-Oct-24 00:00S 33°04' E 152°05'0 0.2
2017-Oct-23 23:30S 33°04' E 152°05'0 0.3
2017-Oct-23 23:00S 33°04' E 152°06'0 0.2
2017-Oct-23 22:30S 33°04' E 152°06'0 0.2
2017-Oct-23 22:00S 33°04' E 152°06'0 0.1
2017-Oct-23 21:30S 33°04' E 152°06'0 0.3
2017-Oct-23 21:00S 33°04' E 152°05'0 0.1
2017-Oct-23 20:30S 33°04' E 152°05'0 0.2
2017-Oct-23 20:00S 33°04' E 152°05'0 0.2
2017-Oct-23 19:30S 33°04' E 152°05'0 0.2
2017-Oct-23 19:00S 33°04' E 152°05'0 0.1
2017-Oct-23 18:30S 33°04' E 152°05'0 0.1
2017-Oct-23 18:00S 33°03' E 152°05'0 0.1
2017-Oct-23 17:30S 33°03' E 152°05'0 0.2
2017-Oct-23 17:00S 33°03' E 152°05'0 0.2
2017-Oct-23 16:30S 33°03' E 152°05'0 0.1
2017-Oct-23 16:00S 33°03' E 152°05'0 0.2
2017-Oct-23 15:30S 33°03' E 152°05'0 0.2
2017-Oct-23 15:00S 33°03' E 152°05'0 0.3
2017-Oct-23 14:30S 33°03' E 152°04'0 0.3
2017-Oct-23 14:00S 33°04' E 152°04'0 0.3
2017-Oct-23 13:30S 33°04' E 152°04'0 0.5
2017-Oct-23 13:00S 33°04' E 152°04'0 0.4
2017-Oct-23 12:30S 33°04' E 152°04'0 0.3
2017-Oct-23 12:00S 33°04' E 152°04'0 0.3
2017-Oct-23 11:30S 33°04' E 152°04'0 0.2
2017-Oct-23 11:00S 33°04' E 152°04'0 0.3
2017-Oct-23 10:30S 33°04' E 152°04'0 0.2
2017-Oct-23 10:00S 33°04' E 152°04'0 0.5
2017-Oct-23 09:30S 33°05' E 152°04'0 0.7
2017-Oct-23 09:00S 33°05' E 152°04'0 0.7
2017-Oct-23 08:30S 33°05' E 152°05'0 0.6
2017-Oct-23 08:00S 33°05' E 152°05'0 0.7
2017-Oct-23 07:30S 33°05' E 152°05'0 0.6
2017-Oct-23 07:00S 33°05' E 152°06'0 0.7
2017-Oct-23 06:30S 33°05' E 152°06'0 0.7
2017-Oct-23 06:00S 33°05' E 152°06'0 0.8
2017-Oct-23 05:30S 33°06' E 152°07'0 0.8
2017-Oct-23 05:00S 33°06' E 152°07'0 0.7
2017-Oct-23 04:30S 33°06' E 152°08'0 0.8
2017-Oct-23 04:00S 33°06' E 152°08'0 0.7
2017-Oct-23 03:30S 33°07' E 152°08'0 0.7
2017-Oct-23 03:00S 33°07' E 152°09'0 0.8
2017-Oct-23 02:30S 33°07' E 152°09'0 0.6
2017-Oct-23 02:00S 33°07' E 152°09'0 0.5
2017-Oct-23 01:30S 33°07' E 152°09'0 0.5
2017-Oct-23 01:00S 33°08' E 152°10'0 0.5
2017-Oct-23 00:30S 33°08' E 152°10'0 0.4
2017-Oct-23 00:00S 33°08' E 152°10'0 0.3
2017-Oct-22 23:30S 33°08' E 152°10'0 0.1
2017-Oct-22 23:00S 33°08' E 152°10'0 0.2
2017-Oct-22 22:30S 33°08' E 152°10'0 0.4
2017-Oct-22 22:00S 33°08' E 152°10'0 0.0
2017-Oct-22 21:30S 33°08' E 152°10'0 0.2
2017-Oct-22 21:00S 33°08' E 152°10'0 0.2
2017-Oct-22 20:30S 33°08' E 152°10'0 0.4
2017-Oct-22 20:00S 33°07' E 152°10'0 0.4
2017-Oct-22 19:30S 33°07' E 152°10'0 0.4
2017-Oct-22 19:00S 33°07' E 152°10'0 0.5
2017-Oct-22 18:30S 33°07' E 152°11'0 0.6
2017-Oct-22 18:00S 33°07' E 152°11'0 0.7
2017-Oct-22 17:30S 33°06' E 152°11'0 0.7
2017-Oct-22 17:00S 33°06' E 152°11'0 0.7
2017-Oct-22 16:30S 33°06' E 152°11'0 0.8
2017-Oct-22 16:00S 33°05' E 152°11'0 0.8
2017-Oct-22 15:30S 33°05' E 152°12'0 0.9
2017-Oct-22 15:00S 33°05' E 152°12'0 0.9
2017-Oct-22 14:30S 33°05' E 152°13'1 1.0
2017-Oct-22 14:00S 33°05' E 152°13'1 1.0
2017-Oct-22 13:30S 33°05' E 152°14'0 0.9
2017-Oct-22 13:00S 33°05' E 152°15'1 1.1
2017-Oct-22 12:30S 33°05' E 152°15'1 1.0
2017-Oct-22 12:00S 33°05' E 152°16'1 1.3
2017-Oct-22 11:30S 33°05' E 152°17'1 1.1
2017-Oct-22 11:00S 33°05' E 152°17'1 1.1
2017-Oct-22 10:30S 33°06' E 152°18'0 1.0
2017-Oct-22 10:00S 33°06' E 152°18'0 0.8
2017-Oct-22 09:30S 33°06' E 152°18'1 1.7
2017-Oct-22 09:00S 33°07' E 152°19'2 4.4
2017-Oct-22 08:30S 33°05' E 152°18'4 7.3
2017-Oct-22 08:00S 33°02' E 152°16'4 8.9
2017-Oct-22 07:30S 32°58' E 152°13'0 0.4
2017-Oct-22 07:00S 32°58' E 152°13'0 1.0
2017-Oct-22 06:30S 32°58' E 152°14'1 1.1
2017-Oct-22 06:00S 32°58' E 152°14'0 0.9
2017-Oct-22 05:30S 32°58' E 152°15'0 1.0
2017-Oct-22 05:00S 32°59' E 152°15'0 0.9
2017-Oct-22 04:30S 32°59' E 152°16'0 0.9
2017-Oct-22 04:00S 32°59' E 152°17'0 0.8
2017-Oct-22 03:30S 32°59' E 152°17'0 0.7
2017-Oct-22 03:00S 32°59' E 152°17'0 0.4
2017-Oct-22 02:30S 32°59' E 152°18'1 2.3
2017-Oct-22 02:00S 32°58' E 152°18'4 8.9
2017-Oct-22 01:30S 32°54' E 152°14'3 5.8
2017-Oct-22 01:00S 32°54' E 152°11'1 3.0
2017-Oct-22 00:30S 32°53' E 152°10'1 2.2
2017-Oct-22 00:00S 32°53' E 152°11'1 1.4
2017-Oct-21 23:30S 32°54' E 152°11'1 1.5
2017-Oct-21 23:00S 32°55' E 152°11'1 1.6
2017-Oct-21 22:30S 32°55' E 152°11'1 1.4
2017-Oct-21 22:00S 32°56' E 152°11'0 0.9
2017-Oct-21 21:30S 32°56' E 152°11'0 0.6
2017-Oct-21 21:00S 32°57' E 152°11'0 0.7
2017-Oct-21 20:30S 32°57' E 152°11'1 1.1
2017-Oct-21 20:00S 32°57' E 152°10'1 1.0
2017-Oct-21 19:30S 32°58' E 152°10'0 0.8
2017-Oct-21 19:00S 32°58' E 152°10'0 0.8
2017-Oct-21 18:30S 32°58' E 152°09'0 0.7
2017-Oct-21 18:00S 32°59' E 152°09'0 0.7
2017-Oct-21 17:30S 32°59' E 152°09'0 0.6
2017-Oct-21 17:00S 32°59' E 152°09'0 0.6
2017-Oct-21 16:30S 32°60' E 152°09'0 0.6
2017-Oct-21 16:00S 32°60' E 152°09'0 0.7
2017-Oct-21 15:30S 33°00' E 152°10'0 0.8
2017-Oct-21 15:00S 33°00' E 152°10'0 0.5
2017-Oct-21 14:30S 33°00' E 152°10'0 0.4
2017-Oct-21 13:30S 33°01' E 152°11'0 0.4
2017-Oct-21 13:00S 33°01' E 152°11'0 0.3
2017-Oct-21 12:30S 33°01' E 152°11'0 0.4
2017-Oct-21 12:00S 33°01' E 152°11'0 0.4
2017-Oct-21 11:30S 33°01' E 152°11'0 0.4
2017-Oct-21 11:00S 33°02' E 152°11'0 0.5
2017-Oct-21 10:30S 33°02' E 152°11'0 0.6
2017-Oct-21 10:00S 33°02' E 152°11'0 0.6
2017-Oct-21 09:30S 33°02' E 152°11'0 0.1
2017-Oct-21 09:00S 33°02' E 152°11'2 3.9
2017-Oct-21 08:30S 33°01' E 152°13'2 3.5
2017-Oct-21 08:00S 33°01' E 152°11'612.3
2017-Oct-21 07:30S 32°60' E 152°04'4 8.2
2017-Oct-21 07:00S 32°57' E 152°00'611.8
2017-Oct-21 06:30S 32°54' E 152°06'611.7
2017-Oct-21 06:00S 32°51' E 152°12'612.0
2017-Oct-21 05:30S 32°47' E 152°18'612.1
2017-Oct-21 05:00S 32°44' E 152°24'612.1
2017-Oct-21 04:30S 32°40' E 152°29'612.0
2017-Oct-21 04:00S 32°35' E 152°33'611.9
2017-Oct-21 03:30S 32°30' E 152°38'611.6
2017-Oct-21 03:00S 32°25' E 152°41'23512.8
2017-Oct-20 08:37S 28°39' E 153°55'415.8
2017-Oct-20 08:23S 28°35' E 153°55'615.8
2017-Oct-20 08:00S 28°29' E 153°56'815.8
2017-Oct-20 07:30S 28°21' E 153°57'816.0
2017-Oct-20 06:59S 28°13' E 153°58'815.9
2017-Oct-20 06:30S 28°05' E 153°59'815.8
2017-Oct-20 06:00S 27°57' E 153°59'815.9
2017-Oct-20 05:30S 27°50' E 154°00'916.0
2017-Oct-20 04:58S 27°41' E 154°01'  
Track history (hours):
 
Tides and Currents Weather Stations Pressure Air Temp Water Temp Dewpoint Dewpoint Depression Visibility Wind Speed Wind Dir Waves Ship Positions

K. Taean

Last reported at 2017-Oct-26 23:19 UTC. Time now 2017-Nov-24 20:39 UTC.
Position S 27°23' E 154°03'.
Warning: this ship's position is 28 days out of date.

Length 273 m; draft 14.9 m.

Type: Cargo ship. MMSI: 356374000.

Date/timePositionNaut miles runAvg speedWind from/ knotsBaromVisibWave heightAir tempDewpointWater temp
2017-Oct-26 23:19S 27°23' E 154°03'411.1
2017-Oct-26 23:00S 27°27' E 154°03'511.0
2017-Oct-26 22:30S 27°32' E 154°03'511.1
2017-Oct-26 22:01S 27°38' E 154°02'611.1
2017-Oct-26 21:31S 27°43' E 154°02'611.1
2017-Oct-26 21:01S 27°49' E 154°02'510.9
2017-Oct-26 20:31S 27°54' E 154°02'510.8
2017-Oct-26 20:01S 27°60' E 154°01'510.4
2017-Oct-26 19:31S 28°05' E 154°01'510.4
2017-Oct-26 19:00S 28°10' E 153°59'510.5
2017-Oct-26 18:30S 28°15' E 153°58'510.5
2017-Oct-26 18:00S 28°20' E 153°57'510.3
2017-Oct-26 17:31S 28°25' E 153°56'510.3
2017-Oct-26 17:00S 28°31' E 153°55'510.1
2017-Oct-26 16:30S 28°36' E 153°55'11 9.8
2017-Oct-26 15:24S 28°46' E 153°54'4 9.4
2017-Oct-26 14:57S 28°51' E 153°53'8 9.4
2017-Oct-26 14:09S 28°58' E 153°52'1 9.4
2017-Oct-26 14:00S 28°59' E 153°52'19011.2
2017-Oct-25 21:03S 32°02' E 152°52'011.3
2017-Oct-25 21:00S 32°02' E 152°52'711.6
2017-Oct-25 20:22S 32°09' E 152°49'711.9
2017-Oct-25 19:46S 32°16' E 152°46'511.8
2017-Oct-25 19:18S 32°21' E 152°43'311.7
2017-Oct-25 19:01S 32°24' E 152°42'612.5
2017-Oct-25 18:30S 32°30' E 152°39'612.9
2017-Oct-25 18:00S 32°35' E 152°34'713.2
2017-Oct-25 17:31S 32°40' E 152°29'713.1
2017-Oct-25 17:00S 32°45' E 152°23'713.5
2017-Oct-25 16:30S 32°47' E 152°16'612.9
2017-Oct-25 16:00S 32°50' E 152°09'612.4
2017-Oct-25 15:30S 32°53' E 152°02'612.5
2017-Oct-25 15:00S 32°55' E 151°55'4 8.9
2017-Oct-25 14:30S 32°57' E 151°51'3 5.8
2017-Oct-25 14:00S 32°55' E 151°48'1 2.8
2017-Oct-25 13:30S 32°54' E 151°46'1 2.9
2017-Oct-25 13:00S 32°53' E 151°45'0 0.4
2017-Oct-25 12:28S 32°53' E 151°45'0 0.0
2017-Oct-25 11:58S 32°53' E 151°45'0 0.0
2017-Oct-25 11:28S 32°53' E 151°45'0 0.0
2017-Oct-25 11:00S 32°53' E 151°45'0 0.0
2017-Oct-25 10:30S 32°53' E 151°45'0 0.0
2017-Oct-25 10:00S 32°53' E 151°45'0 0.0
2017-Oct-25 09:30S 32°53' E 151°45'0 0.0
2017-Oct-25 09:00S 32°53' E 151°45'0 0.0
2017-Oct-25 08:28S 32°53' E 151°45'0 0.0
2017-Oct-25 07:58S 32°53' E 151°45'0 0.0
2017-Oct-25 07:30S 32°53' E 151°45'0 0.0
2017-Oct-25 07:00S 32°53' E 151°45'0 0.0
2017-Oct-25 06:30S 32°53' E 151°45'0 0.0
2017-Oct-25 05:58S 32°53' E 151°45'0 0.0
2017-Oct-25 05:30S 32°53' E 151°45'0 0.0
2017-Oct-25 04:57S 32°53' E 151°45'0 0.0
2017-Oct-25 04:30S 32°53' E 151°45'0 0.0
2017-Oct-25 04:00S 32°53' E 151°45'0 0.0
2017-Oct-25 03:30S 32°53' E 151°45'0 0.0
2017-Oct-25 03:00S 32°53' E 151°45'0 0.0
2017-Oct-25 02:24S 32°53' E 151°45'0 0.0
2017-Oct-25 02:00S 32°53' E 151°45'0 0.0
2017-Oct-25 01:30S 32°53' E 151°45'0 0.0
2017-Oct-25 01:00S 32°53' E 151°45'0 0.0
2017-Oct-25 00:30S 32°53' E 151°45'0 0.0
2017-Oct-25 00:00S 32°53' E 151°45'0 0.0
2017-Oct-24 23:27S 32°53' E 151°45'0 0.0
2017-Oct-24 23:00S 32°53' E 151°45'0 0.0
2017-Oct-24 22:30S 32°53' E 151°45'0 0.0
2017-Oct-24 22:00S 32°53' E 151°45'0 0.0
2017-Oct-24 21:30S 32°53' E 151°45'0 0.0
2017-Oct-24 21:00S 32°53' E 151°45'0 0.0
2017-Oct-24 20:30S 32°53' E 151°45'0 0.0
2017-Oct-24 20:00S 32°53' E 151°45'0 0.0
2017-Oct-24 19:30S 32°53' E 151°45'0 0.0
2017-Oct-24 19:00S 32°53' E 151°45'0 0.0
2017-Oct-24 18:30S 32°53' E 151°45'0 0.0
2017-Oct-24 18:00S 32°53' E 151°45'0 0.0
2017-Oct-24 17:30S 32°53' E 151°45'0 0.0
2017-Oct-24 17:00S 32°53' E 151°45'0 0.0
2017-Oct-24 16:30S 32°53' E 151°45'0 0.0
2017-Oct-24 16:00S 32°53' E 151°45'0 0.0
2017-Oct-24 15:30S 32°53' E 151°45'0 0.0
2017-Oct-24 15:00S 32°53' E 151°45'0 0.0
2017-Oct-24 14:30S 32°53' E 151°45'0 0.0
2017-Oct-24 14:00S 32°53' E 151°45'0 0.0
2017-Oct-24 13:30S 32°53' E 151°45'0 0.0
2017-Oct-24 13:00S 32°53' E 151°45'0 0.0
2017-Oct-24 12:30S 32°53' E 151°45'0 0.0
2017-Oct-24 12:00S 32°53' E 151°45'0 0.0
2017-Oct-24 11:30S 32°53' E 151°45'0 0.0
2017-Oct-24 11:00S 32°53' E 151°45'0 0.0
2017-Oct-24 10:30S 32°53' E 151°45'0 0.0
2017-Oct-24 10:00S 32°53' E 151°45'0 0.0
2017-Oct-24 09:30S 32°53' E 151°45'0 0.0
2017-Oct-24 09:00S 32°53' E 151°45'0 0.0
2017-Oct-24 08:27S 32°53' E 151°45'0 0.0
2017-Oct-24 08:00S 32°53' E 151°45'0 0.0
2017-Oct-24 07:27S 32°53' E 151°45'0 0.0
2017-Oct-24 06:51S 32°53' E 151°45'0 0.0
2017-Oct-24 06:27S 32°53' E 151°45'0 0.0
2017-Oct-24 05:57S 32°53' E 151°45'0 0.0
2017-Oct-24 05:30S 32°53' E 151°45'0 0.0
2017-Oct-24 05:00S 32°53' E 151°45'0 0.0
2017-Oct-24 04:30S 32°53' E 151°45'0 0.0
2017-Oct-24 04:00S 32°53' E 151°45'0 0.0
2017-Oct-24 03:30S 32°53' E 151°45'0 0.0
2017-Oct-24 03:00S 32°53' E 151°45'1 1.8
2017-Oct-24 02:30S 32°53' E 151°46'2 3.1
2017-Oct-24 02:00S 32°55' E 151°47'3 6.4
2017-Oct-24 01:30S 32°55' E 151°50'510.5
2017-Oct-24 01:00S 32°59' E 151°54'611.9
2017-Oct-24 00:30S 33°02' E 152°01'5 9.4
2017-Oct-24 00:00S 33°04' E 152°05'0 0.2
2017-Oct-23 23:30S 33°04' E 152°05'0 0.3
2017-Oct-23 23:00S 33°04' E 152°06'0 0.2
2017-Oct-23 22:30S 33°04' E 152°06'0 0.2
2017-Oct-23 22:00S 33°04' E 152°06'0 0.1
2017-Oct-23 21:30S 33°04' E 152°06'0 0.3
2017-Oct-23 21:00S 33°04' E 152°05'0 0.1
2017-Oct-23 20:30S 33°04' E 152°05'0 0.2
2017-Oct-23 20:00S 33°04' E 152°05'0 0.2
2017-Oct-23 19:30S 33°04' E 152°05'0 0.2
2017-Oct-23 19:00S 33°04' E 152°05'0 0.1
2017-Oct-23 18:30S 33°04' E 152°05'0 0.1
2017-Oct-23 18:00S 33°03' E 152°05'0 0.1
2017-Oct-23 17:30S 33°03' E 152°05'0 0.2
2017-Oct-23 17:00S 33°03' E 152°05'0 0.2
2017-Oct-23 16:30S 33°03' E 152°05'0 0.1
2017-Oct-23 16:00S 33°03' E 152°05'0 0.2
2017-Oct-23 15:30S 33°03' E 152°05'0 0.2
2017-Oct-23 15:00S 33°03' E 152°05'0 0.3
2017-Oct-23 14:30S 33°03' E 152°04'0 0.3
2017-Oct-23 14:00S 33°04' E 152°04'0 0.3
2017-Oct-23 13:30S 33°04' E 152°04'0 0.5
2017-Oct-23 13:00S 33°04' E 152°04'0 0.4
2017-Oct-23 12:30S 33°04' E 152°04'0 0.3
2017-Oct-23 12:00S 33°04' E 152°04'0 0.3
2017-Oct-23 11:30S 33°04' E 152°04'0 0.2
2017-Oct-23 11:00S 33°04' E 152°04'0 0.3
2017-Oct-23 10:30S 33°04' E 152°04'0 0.2
2017-Oct-23 10:00S 33°04' E 152°04'0 0.5
2017-Oct-23 09:30S 33°05' E 152°04'0 0.7
2017-Oct-23 09:00S 33°05' E 152°04'0 0.7
2017-Oct-23 08:30S 33°05' E 152°05'0 0.6
2017-Oct-23 08:00S 33°05' E 152°05'0 0.7
2017-Oct-23 07:30S 33°05' E 152°05'0 0.6
2017-Oct-23 07:00S 33°05' E 152°06'0 0.7
2017-Oct-23 06:30S 33°05' E 152°06'0 0.7
2017-Oct-23 06:00S 33°05' E 152°06'0 0.8
2017-Oct-23 05:30S 33°06' E 152°07'0 0.8
2017-Oct-23 05:00S 33°06' E 152°07'0 0.7
2017-Oct-23 04:30S 33°06' E 152°08'0 0.8
2017-Oct-23 04:00S 33°06' E 152°08'0 0.7
2017-Oct-23 03:30S 33°07' E 152°08'0 0.7
2017-Oct-23 03:00S 33°07' E 152°09'0 0.8
2017-Oct-23 02:30S 33°07' E 152°09'0 0.6
2017-Oct-23 02:00S 33°07' E 152°09'0 0.5
2017-Oct-23 01:30S 33°07' E 152°09'0 0.5
2017-Oct-23 01:00S 33°08' E 152°10'0 0.5
2017-Oct-23 00:30S 33°08' E 152°10'0 0.4
2017-Oct-23 00:00S 33°08' E 152°10'0 0.3
2017-Oct-22 23:30S 33°08' E 152°10'0 0.1
2017-Oct-22 23:00S 33°08' E 152°10'0 0.2
2017-Oct-22 22:30S 33°08' E 152°10'0 0.4
2017-Oct-22 22:00S 33°08' E 152°10'0 0.0
2017-Oct-22 21:30S 33°08' E 152°10'0 0.2
2017-Oct-22 21:00S 33°08' E 152°10'0 0.2
2017-Oct-22 20:30S 33°08' E 152°10'0 0.4
2017-Oct-22 20:00S 33°07' E 152°10'0 0.4
2017-Oct-22 19:30S 33°07' E 152°10'0 0.4
2017-Oct-22 19:00S 33°07' E 152°10'0 0.5
2017-Oct-22 18:30S 33°07' E 152°11'0 0.6
2017-Oct-22 18:00S 33°07' E 152°11'0 0.7
2017-Oct-22 17:30S 33°06' E 152°11'0 0.7
2017-Oct-22 17:00S 33°06' E 152°11'0 0.7
2017-Oct-22 16:30S 33°06' E 152°11'0 0.8
2017-Oct-22 16:00S 33°05' E 152°11'0 0.8
2017-Oct-22 15:30S 33°05' E 152°12'0 0.9
2017-Oct-22 15:00S 33°05' E 152°12'0 0.9
2017-Oct-22 14:30S 33°05' E 152°13'1 1.0
2017-Oct-22 14:00S 33°05' E 152°13'1 1.0
2017-Oct-22 13:30S 33°05' E 152°14'0 0.9
2017-Oct-22 13:00S 33°05' E 152°15'1 1.1
2017-Oct-22 12:30S 33°05' E 152°15'1 1.0
2017-Oct-22 12:00S 33°05' E 152°16'1 1.3
2017-Oct-22 11:30S 33°05' E 152°17'1 1.1
2017-Oct-22 11:00S 33°05' E 152°17'1 1.1
2017-Oct-22 10:30S 33°06' E 152°18'0 1.0
2017-Oct-22 10:00S 33°06' E 152°18'0 0.8
2017-Oct-22 09:30S 33°06' E 152°18'1 1.7
2017-Oct-22 09:00S 33°07' E 152°19'2 4.4
2017-Oct-22 08:30S 33°05' E 152°18'4 7.3
2017-Oct-22 08:00S 33°02' E 152°16'4 8.9
2017-Oct-22 07:30S 32°58' E 152°13'0 0.4
2017-Oct-22 07:00S 32°58' E 152°13'0 1.0
2017-Oct-22 06:30S 32°58' E 152°14'1 1.1
2017-Oct-22 06:00S 32°58' E 152°14'0 0.9
2017-Oct-22 05:30S 32°58' E 152°15'0 1.0
2017-Oct-22 05:00S 32°59' E 152°15'0 0.9
2017-Oct-22 04:30S 32°59' E 152°16'0 0.9
2017-Oct-22 04:00S 32°59' E 152°17'0 0.8
2017-Oct-22 03:30S 32°59' E 152°17'0 0.7
2017-Oct-22 03:00S 32°59' E 152°17'0 0.4
2017-Oct-22 02:30S 32°59' E 152°18'1 2.3
2017-Oct-22 02:00S 32°58' E 152°18'4 8.9
2017-Oct-22 01:30S 32°54' E 152°14'3 5.8
2017-Oct-22 01:00S 32°54' E 152°11'1 3.0
2017-Oct-22 00:30S 32°53' E 152°10'1 2.2
2017-Oct-22 00:00S 32°53' E 152°11'1 1.4
2017-Oct-21 23:30S 32°54' E 152°11'1 1.5
2017-Oct-21 23:00S 32°55' E 152°11'1 1.6
2017-Oct-21 22:30S 32°55' E 152°11'1 1.4
2017-Oct-21 22:00S 32°56' E 152°11'0 0.9
2017-Oct-21 21:30S 32°56' E 152°11'0 0.6
2017-Oct-21 21:00S 32°57' E 152°11'0 0.7
2017-Oct-21 20:30S 32°57' E 152°11'1 1.1
2017-Oct-21 20:00S 32°57' E 152°10'1 1.0
2017-Oct-21 19:30S 32°58' E 152°10'0 0.8
2017-Oct-21 19:00S 32°58' E 152°10'0 0.8
2017-Oct-21 18:30S 32°58' E 152°09'0 0.7
2017-Oct-21 18:00S 32°59' E 152°09'0 0.7
2017-Oct-21 17:30S 32°59' E 152°09'0 0.6
2017-Oct-21 17:00S 32°59' E 152°09'0 0.6
2017-Oct-21 16:30S 32°60' E 152°09'0 0.6
2017-Oct-21 16:00S 32°60' E 152°09'0 0.7
2017-Oct-21 15:30S 33°00' E 152°10'0 0.8
2017-Oct-21 15:00S 33°00' E 152°10'0 0.5
2017-Oct-21 14:30S 33°00' E 152°10'0 0.4
2017-Oct-21 13:30S 33°01' E 152°11'0 0.4
2017-Oct-21 13:00S 33°01' E 152°11'0 0.3
2017-Oct-21 12:30S 33°01' E 152°11'0 0.4
2017-Oct-21 12:00S 33°01' E 152°11'0 0.4
2017-Oct-21 11:30S 33°01' E 152°11'0 0.4
2017-Oct-21 11:00S 33°02' E 152°11'0 0.5
2017-Oct-21 10:30S 33°02' E 152°11'0 0.6
2017-Oct-21 10:00S 33°02' E 152°11'0 0.6
2017-Oct-21 09:30S 33°02' E 152°11'0 0.1
2017-Oct-21 09:00S 33°02' E 152°11'2 3.9
2017-Oct-21 08:30S 33°01' E 152°13'2 3.5
2017-Oct-21 08:00S 33°01' E 152°11'612.3
2017-Oct-21 07:30S 32°60' E 152°04'4 8.2
2017-Oct-21 07:00S 32°57' E 152°00'611.8
2017-Oct-21 06:30S 32°54' E 152°06'611.7
2017-Oct-21 06:00S 32°51' E 152°12'612.0
2017-Oct-21 05:30S 32°47' E 152°18'612.1
2017-Oct-21 05:00S 32°44' E 152°24'612.1
2017-Oct-21 04:30S 32°40' E 152°29'612.0
2017-Oct-21 04:00S 32°35' E 152°33'611.9
2017-Oct-21 03:30S 32°30' E 152°38'611.6
2017-Oct-21 03:00S 32°25' E 152°41'23512.8
2017-Oct-20 08:37S 28°39' E 153°55'415.8
2017-Oct-20 08:23S 28°35' E 153°55'615.8
2017-Oct-20 08:00S 28°29' E 153°56'815.8
2017-Oct-20 07:30S 28°21' E 153°57'816.0
2017-Oct-20 06:59S 28°13' E 153°58'815.9
2017-Oct-20 06:30S 28°05' E 153°59'815.8
2017-Oct-20 06:00S 27°57' E 153°59'815.9
2017-Oct-20 05:30S 27°50' E 154°00'916.0
2017-Oct-20 04:58S 27°41' E 154°01'  

Dump ship's entire track history